Time;durP1;ratioP1;P1;durP2;ratioP2;P2;SDS_P1;SDS_P2;PMS_P1;PMS_P2;Temp;Humidity;BMP_temperature;BMP_pressure;BME280_temperature;BME280_humidity;BME280_pressure;Samples;Min_cycle;Max_cycle;Signal;HPM_P1;HPM_P2
2023/03/16 00:00:02;;;;;;;13.25;9.40;;;;;;;0.71;86.72;98725.47;7387556;19;19973;-80
2023/03/16 00:02:29;;;;;;;14.77;10.93;;;;;;;0.69;86.65;98723.88;7386594;19;19918;-79
2023/03/16 00:04:56;;;;;;;20.13;10.68;;;;;;;0.67;86.93;98723.13;7386687;19;19925;-81
2023/03/16 00:07:22;;;;;;;15.98;10.25;;;;;;;0.58;86.92;98720.09;7382462;19;19918;-79
2023/03/16 00:09:49;;;;;;;18.23;11.13;;;;;;;0.57;86.70;98730.59;7415224;19;19915;-80
2023/03/16 00:12:17;;;;;;;17.52;10.65;;;;;;;0.56;86.75;98729.75;7412091;19;19907;-79
2023/03/16 00:14:46;;;;;;;15.05;10.02;;;;;;;0.58;86.69;98732.25;7414518;19;19918;-80
2023/03/16 00:17:17;;;;;;;17.70;10.93;;;;;;;0.53;86.47;98721.28;7404312;19;19915;-80
2023/03/16 00:19:53;;;;;;;18.50;11.43;;;;;;;0.51;86.74;98730.94;7387358;19;20412;-80
2023/03/16 00:22:23;;;;;;;15.85;9.77;;;;;;;0.51;86.70;98728.34;7384728;19;19922;-80
2023/03/16 00:24:51;;;;;;;15.80;10.30;;;;;;;0.51;86.57;98733.53;7384381;19;19918;-80
2023/03/16 00:27:18;;;;;;;16.98;10.95;;;;;;;0.51;86.67;98736.13;7382603;19;19922;-80
2023/03/16 00:29:54;;;;;;;16.45;10.80;;;;;;;0.49;86.69;98732.78;7388146;19;19918;-80
2023/03/16 00:32:32;;;;;;;22.15;11.70;;;;;;;0.47;86.83;98734.63;7381601;19;19915;-80
2023/03/16 00:35:03;;;;;;;19.58;12.10;;;;;;;0.44;86.97;98733.00;7386999;19;19975;-79
2023/03/16 00:37:31;;;;;;;17.67;12.50;;;;;;;0.46;86.82;98730.34;7382766;19;19915;-79
2023/03/16 00:39:59;;;;;;;16.50;10.35;;;;;;;0.43;86.82;98732.19;7387229;19;19950;-80
2023/03/16 00:42:30;;;;;;;16.23;11.07;;;;;;;0.39;86.68;98728.06;7379227;19;19933;-80
2023/03/16 00:44:57;;;;;;;18.15;10.98;;;;;;;0.42;86.58;98727.06;7382278;19;19926;-79
2023/03/16 00:47:29;;;;;;;16.58;11.00;;;;;;;0.39;86.75;98725.44;7383012;19;19932;-79
2023/03/16 00:49:56;;;;;;;15.07;10.15;;;;;;;0.39;86.60;98722.84;7383974;19;20563;-80
2023/03/16 00:52:27;;;;;;;16.70;10.35;;;;;;;0.36;86.69;98723.03;7381072;19;19915;-80
2023/03/16 00:54:54;;;;;;;17.83;11.18;;;;;;;0.34;86.49;98719.69;7388428;19;19922;-79
2023/03/16 00:57:23;;;;;;;17.85;11.15;;;;;;;0.31;86.61;98714.63;7389099;19;19923;-79
2023/03/16 00:59:51;;;;;;;14.63;9.30;;;;;;;0.29;86.54;98720.81;7391473;19;19914;-79
2023/03/16 01:02:22;;;;;;;19.05;10.90;;;;;;;0.25;86.42;98716.72;7389646;19;19927;-79
2023/03/16 01:04:50;;;;;;;19.35;11.02;;;;;;;0.25;86.54;98724.53;7388625;19;19993;-79
2023/03/16 01:07:20;;;;;;;20.42;11.23;;;;;;;0.24;86.91;98725.44;7385102;19;19922;-79
2023/03/16 01:09:47;;;;;;;18.00;10.32;;;;;;;0.24;86.67;98725.44;7388868;19;19927;-79
2023/03/16 01:12:16;;;;;;;16.67;10.35;;;;;;;0.19;86.63;98721.34;7384998;19;19919;-79
2023/03/16 01:14:46;;;;;;;14.95;9.95;;;;;;;0.17;86.68;98720.56;7392846;19;20317;-79
2023/03/16 01:17:14;;;;;;;19.58;12.23;;;;;;;0.26;86.81;98721.00;7380117;19;19982;-79
2023/03/16 01:19:41;;;;;;;16.35;10.73;;;;;;;0.28;87.00;98720.00;7389774;19;20118;-79
2023/03/16 01:22:10;;;;;;;14.63;11.32;;;;;;;0.24;86.83;98713.28;7388994;19;19930;-79
2023/03/16 01:24:38;;;;;;;17.35;10.73;;;;;;;0.24;86.71;98712.44;7385439;19;19994;-79
2023/03/16 01:27:06;;;;;;;18.73;10.82;;;;;;;0.20;86.89;98711.75;7391713;19;19914;-79
2023/03/16 01:29:33;;;;;;;19.40;10.63;;;;;;;0.22;86.85;98717.72;7383792;19;21527;-79
2023/03/16 01:32:03;;;;;;;20.27;10.60;;;;;;;0.23;86.75;98711.59;7391730;19;20351;-79
2023/03/16 01:34:33;;;;;;;18.70;11.43;;;;;;;0.26;86.79;98714.03;7383499;19;20294;-78
2023/03/16 01:37:01;;;;;;;19.73;11.82;;;;;;;0.23;87.03;98706.38;7390496;19;19961;-79
2023/03/16 01:39:35;;;;;;;17.60;11.95;;;;;;;0.30;87.02;98699.94;7380690;19;19923;-78
2023/03/16 01:42:03;;;;;;;23.40;11.52;;;;;;;0.34;87.56;98703.22;7391318;19;19925;-78
2023/03/16 01:45:00;;;;;;;22.23;13.30;;;;;;;0.35;87.31;98704.91;7386950;19;19914;-79
2023/03/16 01:47:37;;;;;;;21.35;11.45;;;;;;;0.37;87.40;98703.91;7383691;19;19919;-78
2023/03/16 01:50:06;;;;;;;19.73;12.15;;;;;;;0.31;87.43;98698.16;7385599;19;20326;-78
2023/03/16 01:52:37;;;;;;;17.85;11.13;;;;;;;0.35;87.75;98697.94;7382413;19;19983;-79
2023/03/16 01:55:08;;;;;;;20.23;10.88;;;;;;;0.36;87.93;98701.38;7383009;19;19937;-77
2023/03/16 01:57:38;;;;;;;21.42;12.05;;;;;;;0.36;87.64;98698.75;7383376;19;19982;-78
2023/03/16 02:00:22;;;;;;;22.85;10.80;;;;;;;0.27;87.67;98696.69;7389105;19;20256;-78
2023/03/16 02:03:06;;;;;;;25.48;12.45;;;;;;;0.23;88.05;98688.19;7389366;19;19977;-78
2023/03/16 02:05:56;;;;;;;20.27;11.52;;;;;;;0.29;88.04;98695.66;7387753;19;19947;-77
2023/03/16 02:08:24;;;;;;;22.23;11.93;;;;;;;0.32;88.07;98687.69;7380932;19;19928;-77
2023/03/16 02:10:53;;;;;;;21.65;12.00;;;;;;;0.32;87.79;98695.50;7387847;19;19929;-78
2023/03/16 02:13:22;;;;;;;21.17;12.00;;;;;;;0.30;87.92;98692.13;7379834;19;19919;-78
2023/03/16 02:15:53;;;;;;;22.02;11.48;;;;;;;0.32;87.86;98687.69;7386984;19;19927;-78
2023/03/16 02:18:23;;;;;;;18.20;10.77;;;;;;;0.35;87.83;98677.09;7381726;19;19997;-78
2023/03/16 02:21:06;;;;;;;20.08;11.23;;;;;;;0.31;87.53;98669.53;7390425;19;19925;-77
2023/03/16 02:23:32;;;;;;;20.90;11.00;;;;;;;0.27;87.29;98668.06;7381111;19;20293;-78
2023/03/16 02:26:21;;;;;;;18.05;10.70;;;;;;;0.26;87.34;98672.41;7389707;19;20341;-77
2023/03/16 02:29:28;;;;;;;18.88;13.48;;;;;;;0.21;87.13;98677.88;7387155;19;20904;-78
2023/03/16 02:31:56;;;;;;;19.65;11.02;;;;;;;0.18;87.08;98671.97;7390815;19;19942;-77
2023/03/16 02:34:23;;;;;;;17.67;10.32;;;;;;;0.17;87.14;98665.09;7384694;19;19929;-80
2023/03/16 02:36:51;;;;;;;16.98;11.10;;;;;;;0.14;87.25;98667.88;7390800;19;19966;-78
2023/03/16 02:39:22;;;;;;;21.65;12.07;;;;;;;0.17;87.21;98672.91;7381098;19;19934;-79
2023/03/16 02:41:49;;;;;;;20.00;10.63;;;;;;;0.19;87.32;98671.06;7385222;19;20341;-78
2023/03/16 02:44:26;;;;;;;19.30;10.63;;;;;;;0.23;87.53;98675.16;7384970;19;19918;-78
2023/03/16 02:46:53;;;;;;;;;;;;;;;0.23;87.29;98669.97;7388694;19;19923;-78
2023/03/16 02:49:26;;;;;;;17.98;11.38;;;;;;;0.20;87.12;98670.97;7376744;19;19956;-77
2023/03/16 02:51:53;;;;;;;19.98;9.82;;;;;;;0.15;87.25;98666.94;7386565;19;19922;-79
2023/03/16 02:54:20;;;;;;;21.58;10.88;;;;;;;0.16;87.54;98671.25;7384133;19;20467;-78
2023/03/16 02:56:53;;;;;;;17.45;10.75;;;;;;;0.23;87.91;98669.97;7387626;19;19938;-78
2023/03/16 02:59:21;;;;;;;17.50;11.52;;;;;;;0.24;87.71;98661.25;7381693;19;19926;-78
2023/03/16 03:01:51;;;;;;;20.50;11.50;;;;;;;0.20;87.49;98662.34;7386623;19;19955;-78
2023/03/16 03:04:27;;;;;;;19.15;10.55;;;;;;;0.18;87.37;98661.56;7381715;19;20359;-79
2023/03/16 03:06:54;;;;;;;18.05;11.07;;;;;;;0.16;87.40;98655.63;7389815;19;20263;-79
2023/03/16 03:09:21;;;;;;;16.63;10.45;;;;;;;0.18;87.32;98646.78;7381869;19;19917;-79
2023/03/16 03:11:51;;;;;;;19.83;10.27;;;;;;;0.19;87.22;98647.66;7387316;19;19946;-79
2023/03/16 03:14:19;;;;;;;18.83;10.85;;;;;;;0.20;87.36;98647.56;7380755;19;19922;-79
2023/03/16 03:16:51;;;;;;;20.80;11.13;;;;;;;0.16;87.29;98646.06;7387916;19;19955;-78
2023/03/16 03:19:18;;;;;;;19.55;10.95;;;;;;;0.13;87.06;98661.84;7379445;19;19919;-79
2023/03/16 03:21:44;;;;;;;16.95;10.20;;;;;;;0.12;86.91;98656.72;7388455;19;19914;-79
2023/03/16 03:24:12;;;;;;;18.13;10.82;;;;;;;0.11;86.99;98662.84;7390427;19;19927;-79
2023/03/16 03:26:38;;;;;;;17.65;10.82;;;;;;;0.08;86.84;98657.78;7384010;19;19919;-79
2023/03/16 03:29:10;;;;;;;20.20;10.68;;;;;;;0.05;86.74;98658.78;7384405;19;19930;-79
2023/03/16 03:31:37;;;;;;;18.25;9.90;;;;;;;0.05;86.69;98647.56;7382196;19;19923;-80
2023/03/16 03:34:05;;;;;;;15.05;9.40;;;;;;;-0.01;86.80;98641.75;7387885;19;19918;-79
2023/03/16 03:36:34;;;;;;;20.48;11.27;;;;;;;0.06;87.05;98631.88;7383341;19;19922;-78
2023/03/16 03:39:03;;;;;;;19.40;10.60;;;;;;;0.08;87.04;98637.84;7385540;19;19990;-79
2023/03/16 03:41:33;;;;;;;15.65;11.18;;;;;;;0.11;87.28;98634.22;7383399;19;19915;-79
2023/03/16 03:44:03;;;;;;;16.45;10.60;;;;;;;0.09;87.36;98625.66;7387096;19;19929;-79
2023/03/16 03:46:29;;;;;;;17.75;9.35;;;;;;;0.11;87.42;98634.22;7382026;19;19933;-79
2023/03/16 03:49:02;;;;;;;17.58;9.75;;;;;;;0.10;87.42;98629.94;7386040;19;19922;-79
2023/03/16 03:51:32;;;;;;;19.55;10.65;;;;;;;0.14;87.55;98637.50;7379966;19;19923;-79
2023/03/16 03:54:07;;;;;;;16.73;10.25;;;;;;;0.13;87.30;98632.34;7382694;19;20285;-77
2023/03/16 03:56:45;;;;;;;19.05;10.70;;;;;;;0.10;87.25;98627.31;7387002;19;19917;-79
2023/03/16 03:59:14;;;;;;;19.80;10.55;;;;;;;0.15;87.21;98630.53;7387086;19;19922;-78
2023/03/16 04:01:59;;;;;;;16.70;11.27;;;;;;;0.17;87.50;98626.06;7389403;19;21097;-79
2023/03/16 04:04:36;;;;;;;21.23;11.75;;;;;;;0.14;87.19;98628.84;7380069;19;19998;-79
2023/03/16 04:07:03;;;;;;;18.58;9.85;;;;;;;0.14;87.07;98623.66;7386011;19;19926;-80
2023/03/16 04:09:32;;;;;;;17.98;10.50;;;;;;;0.12;87.19;98625.50;7378370;19;20374;-80
2023/03/16 04:12:01;;;;;;;19.23;10.73;;;;;;;0.16;87.31;98619.22;7387957;19;19919;-79
2023/03/16 04:14:28;;;;;;;18.20;10.18;;;;;;;0.09;87.06;98621.28;7381660;19;19923;-78
2023/03/16 04:16:55;;;;;;;20.67;10.93;;;;;;;0.12;87.16;98626.31;7388065;19;20406;-78
2023/03/16 04:19:23;;;;;;;18.15;11.45;;;;;;;0.14;87.28;98631.47;7379925;19;19998;-79
2023/03/16 04:21:54;;;;;;;18.75;10.35;;;;;;;0.17;87.30;98628.69;7381761;19;19929;-79
2023/03/16 04:24:21;;;;;;;21.52;12.88;;;;;;;0.15;87.27;98633.94;7379524;19;19926;-80
2023/03/16 04:26:48;;;;;;;22.73;12.05;;;;;;;0.14;87.25;98626.25;7382712;19;19918;-79
2023/03/16 04:29:18;;;;;;;17.73;10.45;;;;;;;0.15;87.15;98622.72;7384854;19;20241;-79
2023/03/16 04:31:45;;;;;;;18.48;10.70;;;;;;;0.19;87.00;98614.66;7382041;19;19922;-79
2023/03/16 04:34:12;;;;;;;20.70;11.27;;;;;;;0.24;87.19;98608.34;7385864;19;19919;-79
2023/03/16 04:36:40;;;;;;;21.05;10.82;;;;;;;0.21;87.19;98602.41;7380928;19;19919;-79
2023/03/16 04:39:09;;;;;;;20.88;10.88;;;;;;;0.18;87.06;98602.56;7383166;19;19919;-79
2023/03/16 04:41:36;;;;;;;22.90;12.55;;;;;;;0.18;86.89;98606.94;7379288;19;19918;-80
2023/03/16 04:44:10;;;;;;;21.80;11.55;;;;;;;0.15;87.21;98596.69;7382687;19;19929;-79
2023/03/16 04:46:37;;;;;;;18.52;10.55;;;;;;;0.13;86.90;98602.00;7383898;19;19922;-78
2023/03/16 04:49:08;;;;;;;19.52;10.98;;;;;;;0.10;86.92;98602.16;7382592;19;20260;-80
2023/03/16 04:51:36;;;;;;;21.98;11.50;;;;;;;0.12;86.81;98602.06;7380028;19;19918;-79
2023/03/16 04:54:07;;;;;;;21.45;12.07;;;;;;;0.10;86.72;98603.91;7382427;19;19949;-79
2023/03/16 04:56:40;;;;;;;22.15;11.98;;;;;;;0.09;86.64;98607.44;7379622;19;19934;-79
2023/03/16 04:59:25;;;;;;;20.13;10.98;;;;;;;0.10;86.70;98611.72;7376364;19;19929;-79
2023/03/16 05:02:13;;;;;;;19.08;10.85;;;;;;;0.09;86.58;98607.44;7384111;19;19974;-79
2023/03/16 05:04:39;;;;;;;19.33;11.15;;;;;;;0.03;86.51;98610.38;7378055;19;19918;-80
2023/03/16 05:07:10;;;;;;;22.60;10.75;;;;;;;0.01;86.61;98607.88;7386283;19;20279;-80
2023/03/16 05:09:40;;;;;;;21.98;11.40;;;;;;;-0.02;86.53;98608.88;7373395;19;21481;-77
2023/03/16 05:12:07;;;;;;;23.17;12.15;;;;;;;0.00;86.55;98611.41;7380284;19;19923;-78
2023/03/16 05:14:35;;;;;;;21.80;11.32;;;;;;;-0.02;86.57;98614.06;7372902;19;19938;-79
2023/03/16 05:17:16;;;;;;;21.00;11.18;;;;;;;-0.08;86.59;98610.97;7382285;19;19978;-78
2023/03/16 05:19:45;;;;;;;22.88;11.25;;;;;;;-0.10;86.39;98615.44;7374791;19;19923;-79
2023/03/16 05:22:13;;;;;;;20.80;12.23;;;;;;;-0.18;86.46;98602.84;7382843;19;19950;-77
2023/03/16 05:25:02;;;;;;;21.67;11.63;;;;;;;-0.14;86.64;98598.28;7381105;19;19930;-79
2023/03/16 05:27:33;;;;;;;25.38;11.32;;;;;;;-0.15;86.68;98596.63;7374519;19;20567;-78
2023/03/16 05:30:01;;;;;;;20.70;10.68;;;;;;;-0.17;86.52;98606.28;7382385;19;19923;-79
2023/03/16 05:32:30;;;;;;;22.80;14.38;;;;;;;-0.18;86.57;98604.59;7375448;19;19914;-78
2023/03/16 05:34:57;;;;;;;20.08;10.00;;;;;;;-0.17;86.64;98604.50;7381876;19;19927;-78
2023/03/16 05:37:24;;;;;;;22.08;12.55;;;;;;;-0.19;86.79;98601.13;7384715;19;19918;-78
2023/03/16 05:39:51;;;;;;;20.40;11.23;;;;;;;-0.17;86.88;98595.88;7383746;19;19915;-78
2023/03/16 05:42:18;;;;;;;23.20;11.50;;;;;;;-0.14;86.80;98591.34;7379535;19;20609;-79
2023/03/16 05:44:50;;;;;;;21.92;12.02;;;;;;;-0.15;86.65;98591.44;7383166;19;19922;-79
2023/03/16 05:47:21;;;;;;;19.23;11.63;;;;;;;-0.13;86.93;98589.56;7391253;19;20343;-78
2023/03/16 05:49:53;;;;;;;21.10;12.15;;;;;;;-0.11;86.82;98596.34;7384312;19;19918;-78
2023/03/16 05:52:30;;;;;;;23.60;12.65;;;;;;;-0.09;87.11;98591.91;7384840;19;19920;-79
2023/03/16 05:55:04;;;;;;;24.08;11.88;;;;;;;-0.07;87.14;98587.47;7386153;19;19922;-77
2023/03/16 05:57:32;;;;;;;22.40;12.70;;;;;;;0.04;87.47;98593.84;7378614;19;20082;-78
2023/03/16 06:00:10;;;;;;;20.27;11.25;;;;;;;0.09;87.27;98590.06;7386271;19;19948;-78
2023/03/16 06:02:37;;;;;;;20.92;11.65;;;;;;;0.14;87.27;98590.66;7386357;19;19950;-78
2023/03/16 06:05:06;;;;;;;22.02;11.93;;;;;;;0.16;87.22;98585.38;7396669;19;19986;-78
2023/03/16 06:07:34;;;;;;;19.80;12.30;;;;;;;0.19;87.35;98590.41;7391341;19;19947;-79
2023/03/16 06:10:01;;;;;;;25.10;12.07;;;;;;;0.24;87.39;98590.13;7390178;19;19933;-79
2023/03/16 06:12:28;;;;;;;20.63;10.23;;;;;;;0.23;87.38;98597.09;7385591;19;19923;-79
2023/03/16 06:14:57;;;;;;;20.73;12.27;;;;;;;0.29;87.44;98594.19;7390066;19;19922;-80
2023/03/16 06:17:23;;;;;;;23.95;11.05;;;;;;;0.28;87.57;98583.84;7383995;19;19922;-80
2023/03/16 06:19:52;;;;;;;20.85;11.60;;;;;;;0.27;87.40;98588.22;7386147;19;19943;-80
2023/03/16 06:22:18;;;;;;;20.67;11.20;;;;;;;0.29;87.28;98585.50;7388019;19;19926;-79
2023/03/16 06:24:45;;;;;;;19.52;10.48;;;;;;;0.34;87.46;98591.31;7381650;19;22219;-81
2023/03/16 06:27:13;;;;;;;19.05;11.15;;;;;;;0.37;87.50;98589.38;7382977;19;20716;-80
2023/03/16 06:29:55;;;;;;;17.23;9.05;;;;;;;0.38;87.37;98579.81;7386705;19;19925;-80
2023/03/16 06:32:22;;;;;;;19.63;11.02;;;;;;;0.38;87.47;98585.84;7386314;19;19915;-80
2023/03/16 06:34:49;;;;;;;17.65;11.13;;;;;;;0.42;87.58;98589.97;7376920;19;19918;-80
2023/03/16 06:37:16;;;;;;;18.40;10.40;;;;;;;0.46;87.45;98592.38;7387405;19;20282;-80
2023/03/16 06:39:46;;;;;;;17.08;10.75;;;;;;;0.46;87.60;98593.22;7379091;19;19926;-79
2023/03/16 06:42:13;;;;;;;20.48;11.00;;;;;;;0.52;87.65;98592.88;7384830;19;20648;-80
2023/03/16 06:44:40;;;;;;;17.65;11.77;;;;;;;0.58;87.67;98591.66;7382434;19;20300;-81
2023/03/16 06:47:10;;;;;;;19.73;10.80;;;;;;;0.63;87.76;98595.72;7389943;19;19919;-81
2023/03/16 06:49:37;;;;;;;23.35;11.82;;;;;;;0.65;87.83;98599.03;7379718;19;20734;-78
2023/03/16 06:52:13;;;;;;;15.80;10.40;;;;;;;0.68;87.88;98595.44;7385603;19;19922;-79
2023/03/16 06:54:40;;;;;;;21.50;11.10;;;;;;;0.70;87.76;98590.13;7384059;19;20477;-79
2023/03/16 06:57:07;;;;;;;17.60;9.60;;;;;;;0.78;87.83;98596.56;7385338;19;20342;-80
2023/03/16 06:59:34;;;;;;;20.15;10.88;;;;;;;0.79;87.98;98595.66;7381007;19;19955;-79
2023/03/16 07:02:01;;;;;;;22.88;10.82;;;;;;;0.83;88.04;98596.31;7386988;19;19923;-79
2023/03/16 07:04:29;;;;;;;20.85;10.57;;;;;;;0.86;88.02;98601.34;7379693;19;19944;-78
2023/03/16 07:06:58;;;;;;;16.38;11.65;;;;;;;0.90;88.12;98602.03;7386869;19;19926;-81
2023/03/16 07:09:26;;;;;;;19.52;10.82;;;;;;;0.94;88.25;98600.91;7381972;19;19946;-79
2023/03/16 07:11:53;;;;;;;20.63;11.52;;;;;;;0.99;88.21;98602.31;7385216;19;19918;-79
2023/03/16 07:14:22;;;;;;;19.63;10.07;;;;;;;1.06;88.22;98603.63;7386704;19;19923;-78
2023/03/16 07:16:49;;;;;;;17.20;11.70;;;;;;;1.11;88.11;98598.16;7380368;19;19933;-80
2023/03/16 07:19:16;;;;;;;18.77;10.50;;;;;;;1.16;88.12;98601.31;7384818;19;20319;-79
2023/03/16 07:21:43;;;;;;;21.42;11.93;;;;;;;1.18;88.07;98609.03;7381803;19;20005;-80
2023/03/16 07:24:16;;;;;;;18.35;9.75;;;;;;;1.23;88.08;98613.03;7383568;19;19918;-80
2023/03/16 07:26:45;;;;;;;20.33;11.88;;;;;;;1.22;87.76;98608.75;7376382;19;19919;-80
2023/03/16 07:29:20;;;;;;;17.00;10.60;;;;;;;1.34;87.84;98604.56;7383508;19;19952;-81
2023/03/16 07:31:47;;;;;;;19.50;11.45;;;;;;;1.45;87.83;98607.41;7382563;19;20492;-80
2023/03/16 07:34:18;;;;;;;20.92;11.80;;;;;;;1.46;87.68;98605.63;7383730;19;19926;-80
2023/03/16 07:36:51;;;;;;;23.30;12.20;;;;;;;1.51;87.58;98600.97;7379585;19;19915;-79
2023/03/16 07:39:20;;;;;;;18.13;10.35;;;;;;;1.60;87.71;98604.78;7384406;19;19922;-79
2023/03/16 07:41:50;;;;;;;21.23;11.23;;;;;;;1.80;87.56;98608.78;7377520;19;19922;-79
2023/03/16 07:44:30;;;;;;;21.80;10.63;;;;;;;2.05;88.41;98605.47;7385246;19;20253;-83
2023/03/16 07:47:00;;;;;;;22.48;12.55;;;;;;;2.28;88.95;98604.00;7381711;19;19950;-82
2023/03/16 07:49:29;;;;;;;22.10;11.60;;;;;;;2.52;89.36;98604.19;7383841;19;19938;-81
2023/03/16 07:51:56;;;;;;;18.73;10.45;;;;;;;2.53;88.20;98601.50;7385883;19;19921;-80
2023/03/16 07:54:31;;;;;;;16.60;10.48;;;;;;;2.58;87.66;98602.03;7382013;19;19962;-82
2023/03/16 07:56:58;;;;;;;20.75;11.27;;;;;;;2.77;87.50;98603.44;7385836;19;19922;-83
2023/03/16 07:59:45;;;;;;;19.63;10.75;;;;;;;3.30;89.78;98606.84;7381247;19;19922;-81
2023/03/16 08:02:18;;;;;;;20.55;11.63;;;;;;;3.70;89.38;98601.50;7386029;19;19926;-83
2023/03/16 08:04:46;;;;;;;22.38;12.95;;;;;;;3.92;89.30;98596.44;7381636;19;19910;-81
2023/03/16 08:07:14;;;;;;;17.08;11.20;;;;;;;4.09;88.04;98604.88;7390008;19;19933;-85
2023/03/16 08:10:01;;;;;;;17.98;11.35;;;;;;;4.03;86.25;98602.66;7388851;19;19919;-82
2023/03/16 08:12:37;;;;;;;17.85;10.52;;;;;;;4.17;85.61;98608.59;7384243;19;19937;-85
2023/03/16 08:15:05;;;;;;;17.85;10.93;;;;;;;4.32;85.50;98611.09;7386737;19;19927;-80
2023/03/16 08:17:33;;;;;;;17.10;10.48;;;;;;;4.50;84.37;98611.53;7382476;19;19930;-83
2023/03/16 08:20:13;;;;;;;16.63;11.00;;;;;;;4.84;85.27;98608.13;7387407;19;19921;-86
2023/03/16 08:22:41;;;;;;;17.05;11.50;;;;;;;5.24;83.98;98597.25;7378546;19;19918;-81
2023/03/16 08:25:11;;;;;;;22.13;11.52;;;;;;;5.38;83.30;98601.44;7382259;19;19914;-82
2023/03/16 08:27:44;;;;;;;16.35;9.88;;;;;;;5.60;80.93;98600.63;7378163;19;19915;-80
2023/03/16 08:30:14;;;;;;;12.40;8.65;;;;;;;5.67;79.26;98604.44;7379631;19;19933;-81
2023/03/16 08:32:44;;;;;;;12.32;8.13;;;;;;;5.71;79.20;98594.53;7376402;19;19922;-82
2023/03/16 08:35:15;;;;;;;14.88;9.85;;;;;;;5.50;78.29;98600.50;7384900;19;20264;-83
2023/03/16 08:37:45;;;;;;;17.52;11.55;;;;;;;5.18;78.06;98600.31;7375859;19;20264;-82
2023/03/16 08:40:18;;;;;;;14.63;8.40;;;;;;;5.17;80.03;98601.28;7386837;19;20573;-82
2023/03/16 08:42:48;;;;;;;13.20;8.25;;;;;;;5.48;79.58;98588.47;7380070;19;20015;-82
2023/03/16 08:45:18;;;;;;;13.68;9.43;;;;;;;5.43;79.09;98590.59;7386482;19;19923;-82
2023/03/16 08:47:45;;;;;;;12.60;8.27;;;;;;;5.35;78.37;98583.31;7376031;19;20289;-81
2023/03/16 08:50:14;;;;;;;12.88;8.93;;;;;;;5.35;78.37;98577.25;7382400;19;19941;-81
2023/03/16 08:52:41;;;;;;;11.43;8.25;;;;;;;5.73;78.71;98569.00;7378375;19;19927;-83
2023/03/16 08:55:15;;;;;;;11.18;7.65;;;;;;;6.06;76.54;98570.78;7384852;19;20294;-82
2023/03/16 08:57:43;;;;;;;13.57;7.70;;;;;;;6.29;76.65;98568.09;7378786;19;19954;-83
2023/03/16 09:00:11;;;;;;;15.27;9.52;;;;;;;6.21;73.47;98560.81;7383227;19;19929;-84
2023/03/16 09:02:42;;;;;;;13.57;8.05;;;;;;;6.32;74.67;98558.19;7379740;19;19929;-84
2023/03/16 09:05:11;;;;;;;12.98;8.52;;;;;;;6.29;73.41;98568.97;7383304;19;19919;-83
2023/03/16 09:07:38;;;;;;;12.63;7.75;;;;;;;6.42;75.44;98567.94;7379064;19;19925;-82
2023/03/16 09:10:14;;;;;;;8.98;7.38;;;;;;;6.60;73.39;98558.56;7384666;19;19942;-84
2023/03/16 09:12:42;;;;;;;10.32;7.25;;;;;;;6.80;75.68;98562.19;7381309;19;19980;-81
2023/03/16 09:15:11;;;;;;;11.65;7.75;;;;;;;6.91;72.49;98563.91;7386542;19;19911;-83
2023/03/16 09:17:38;;;;;;;10.75;7.47;;;;;;;6.91;71.61;98558.66;7379874;19;19930;-83
2023/03/16 09:20:08;;;;;;;11.15;7.10;;;;;;;6.91;73.31;98562.13;7390269;19;19911;-83
2023/03/16 09:22:48;;;;;;;9.38;6.72;;;;;;;6.96;72.11;98562.56;7386849;19;19923;-82
2023/03/16 09:25:15;;;;;;;8.13;5.97;;;;;;;6.99;71.98;98564.94;7390208;19;19915;-83
2023/03/16 09:27:43;;;;;;;10.50;7.32;;;;;;;7.03;73.43;98562.91;7384292;19;19989;-83
2023/03/16 09:30:10;;;;;;;9.43;6.97;;;;;;;7.17;73.11;98553.84;7394689;19;19933;-81
2023/03/16 09:32:37;;;;;;;10.00;6.47;;;;;;;7.39;72.04;98551.03;7384251;19;19926;-80
2023/03/16 09:35:10;;;;;;;8.10;6.50;;;;;;;7.47;70.76;98535.41;7392201;19;19928;-81
2023/03/16 09:37:37;;;;;;;9.63;7.65;;;;;;;7.65;70.70;98537.44;7383097;19;19914;-83
2023/03/16 09:40:21;;;;;;;11.98;6.55;;;;;;;7.78;70.05;98540.66;7395029;19;19923;-81
2023/03/16 09:42:59;;;;;;;9.73;6.55;;;;;;;7.72;70.80;98535.94;7386720;19;19925;-81
2023/03/16 09:45:35;;;;;;;7.25;5.53;;;;;;;7.93;70.85;98540.31;7391918;19;19926;-81
2023/03/16 09:48:05;;;;;;;7.68;5.80;;;;;;;8.04;71.22;98537.56;7389056;19;19931;-80
2023/03/16 09:50:35;;;;;;;8.05;6.20;;;;;;;8.09;68.52;98537.97;7387021;19;19922;-82
2023/03/16 09:53:23;;;;;;;6.88;5.28;;;;;;;8.04;68.85;98534.91;7386340;19;19921;-80
2023/03/16 09:55:54;;;;;;;8.23;5.25;;;;;;;8.08;70.17;98525.75;7380276;19;19918;-81
2023/03/16 09:58:21;;;;;;;8.13;5.28;;;;;;;8.13;67.38;98519.09;7390267;19;19914;-82
2023/03/16 10:01:08;;;;;;;6.45;5.47;;;;;;;8.13;69.64;98515.63;7382417;19;19942;-80
2023/03/16 10:03:58;;;;;;;7.20;5.13;;;;;;;8.22;70.00;98520.09;7384433;19;20459;-80
2023/03/16 10:06:25;;;;;;;11.88;6.63;;;;;;;8.27;69.51;98522.34;7391552;19;19919;-81
2023/03/16 10:08:55;;;;;;;8.45;5.78;;;;;;;8.40;68.16;98524.69;7386483;19;19919;-81
2023/03/16 10:11:48;;;;;;;9.98;6.72;;;;;;;8.27;68.13;98509.97;7388840;19;19919;-79
2023/03/16 10:14:29;;;;;;;7.10;5.30;;;;;;;8.38;69.70;98510.81;7392499;19;19959;-81
2023/03/16 10:17:03;;;;;;;5.90;4.50;;;;;;;8.63;66.43;98517.34;7384302;19;19918;-81
2023/03/16 10:19:40;;;;;;;7.88;4.70;;;;;;;9.02;63.80;98516.31;7392240;19;20510;-81
2023/03/16 10:22:29;;;;;;;6.82;4.18;;;;;;;9.38;65.33;98520.97;7391674;19;19914;-81
2023/03/16 10:25:18;;;;;;;5.13;3.47;;;;;;;9.58;64.22;98519.88;7387903;19;19947;-80
2023/03/16 10:27:45;;;;;;;6.47;4.63;;;;;;;9.47;63.86;98520.09;7387839;19;19938;-80
2023/03/16 10:30:18;;;;;;;6.18;4.30;;;;;;;9.47;64.14;98517.44;7392303;19;20348;-79
2023/03/16 10:32:45;;;;;;;4.90;3.75;;;;;;;9.60;62.99;98507.38;7390519;19;19918;-83
2023/03/16 10:35:40;;;;;;;5.72;3.83;;;;;;;9.72;61.88;98494.00;7394253;19;19922;-80
2023/03/16 10:38:08;;;;;;;5.82;4.20;;;;;;;9.66;63.94;98487.47;7391388;19;19925;-81
2023/03/16 10:40:37;;;;;;;4.80;3.72;;;;;;;9.89;62.60;98486.06;7392989;19;19946;-82
2023/03/16 10:43:12;;;;;;;5.65;4.70;;;;;;;10.40;61.31;98477.69;7394216;19;19960;-83
2023/03/16 10:45:39;;;;;;;5.22;4.05;;;;;;;10.53;60.40;98484.25;7384728;19;19921;-81
2023/03/16 10:48:10;;;;;;;8.45;5.82;;;;;;;10.86;58.39;98487.16;7390946;19;19931;-82
2023/03/16 10:50:37;;;;;;;7.55;5.45;;;;;;;10.85;58.10;98476.69;7388702;19;19919;-82
2023/03/16 10:53:04;;;;;;;5.60;3.78;;;;;;;10.94;58.00;98481.91;7395417;19;19918;-82
2023/03/16 10:55:41;;;;;;;4.93;3.72;;;;;;;11.07;57.72;98485.97;7391320;19;19942;-80
2023/03/16 10:58:08;;;;;;;4.15;3.67;;;;;;;11.06;61.51;98476.34;7396275;19;19937;-80
2023/03/16 11:00:37;;;;;;;6.32;3.88;;;;;;;11.10;59.79;98483.00;7391218;19;19910;-81
2023/03/16 11:03:21;;;;;;;5.68;4.10;;;;;;;11.09;57.40;98473.41;7396735;19;19982;-84
2023/03/16 11:05:56;;;;;;;4.80;3.63;;;;;;;11.51;57.39;98467.34;7387565;19;20014;-78
2023/03/16 11:08:26;;;;;;;4.32;3.22;;;;;;;11.99;55.93;98461.38;7388574;19;19914;-79
2023/03/16 11:10:58;;;;;;;3.55;3.17;;;;;;;12.18;53.08;98464.72;7383415;19;19936;-79
2023/03/16 11:13:32;;;;;;;3.80;2.78;;;;;;;12.53;51.57;98463.56;7392888;19;19922;-81
2023/03/16 11:16:30;;;;;;;5.28;2.70;;;;;;;12.90;52.17;98459.56;7387781;19;19940;-79
2023/03/16 11:19:19;;;;;;;3.38;2.90;;;;;;;12.98;50.96;98459.56;7380411;19;20040;-80
2023/03/16 11:22:03;;;;;;;3.55;3.13;;;;;;;13.39;48.72;98465.63;7387191;19;19911;-78
2023/03/16 11:24:37;;;;;;;4.43;2.65;;;;;;;13.92;49.23;98451.75;7389077;19;19922;-79
2023/03/16 11:27:07;;;;;;;3.85;2.25;;;;;;;14.77;43.85;98449.00;7389463;19;19918;-83
2023/03/16 11:29:34;;;;;;;4.05;2.60;;;;;;;15.28;48.19;98441.16;7388758;19;20356;-77
2023/03/16 11:32:04;;;;;;;4.80;2.90;;;;;;;15.92;46.15;98445.88;7387772;19;19919;-77
2023/03/16 11:34:32;;;;;;;3.97;2.75;;;;;;;16.73;44.34;98445.63;7387527;19;19942;-81
2023/03/16 11:37:20;;;;;;;3.80;3.00;;;;;;;16.56;39.74;98449.56;7385092;19;19922;-77
2023/03/16 11:40:15;;;;;;;4.20;2.60;;;;;;;16.89;38.47;98436.53;7379275;19;19922;-81
2023/03/16 11:43:15;;;;;;;5.78;3.40;;;;;;;16.40;41.54;98442.66;7381813;19;19943;-80
2023/03/16 11:46:17;;;;;;;4.32;2.58;;;;;;;15.88;44.53;98436.59;7386184;19;19959;-79
2023/03/16 11:49:02;;;;;;;3.22;2.85;;;;;;;14.95;42.98;98435.34;7381666;19;19918;-79